Meteo Giornale » Osservazioni meteo Stati Uniti (USA) » Keesler-Biloxi
ore: 11:55 - Osservazioni Meteo Keesler-Biloxi
Lat. 30° 25' N Lon. 88° 55' W Alt. 10 metri s.l.m.
32 °C
Nuvoloso
Temp. 24 Ore
26 °C
32 °C
Sud/Sud-Est
16.7 Km/h
Dew point 25 °C
Umidità 66 %
Visibilità 10 Km
Il sole sorge alle ore 06:32
Il sole tramonta alle ore 19:18
| Data e Ora | Cielo e Fenomeni | T °C | DP °C | Um. % | Pres. hPa | Vis. km | Vento km/h | |
|---|---|---|---|---|---|---|---|---|
| Oggi h: 11:55 | Nuvoloso | 32 | 25 | 66 | 1017 | 10 | S/SE 16.7 | |
| Oggi h: 11:45 | Molto Nuvoloso | 31 | 24 | 66 | 1017 | 10 | S/SE 16.7 | |
| Oggi h: 11:20 | Molto Nuvoloso | 31 | 24 | 66 | 1017 | 10 | E/NE 11.1 | |
| Oggi h: 10:55 | Molto Nuvoloso | 31 | 24 | 66 | 1017 | 10 | E 13 | |
| Oggi h: 09:55 | Sereno | 30 | 25 | 74 | 1017 | 10 | E/NE 14.8 | |
| Oggi h: 08:55 | Nuvoloso | 29 | 25 | 79 | 1017 | 10 | E 11.1 | |
| Oggi h: 07:55 | Nuvoloso | 27 | 24 | 83 | 1017 | 10 | E/NE 11.1 | |
| Oggi h: 06:55 | Poco Nuvoloso | 26 | 24 | 88 | 1016 | 10 | E/NE 7.4 | |
| Oggi h: 06:45 | Nuvoloso | 26 | 24 | 88 | 1016 | 10 | E/NE 7.4 | |
| Oggi h: 06:15 | Molto Nuvoloso | 26 | 24 | 88 | 1016 | 10 | NE 7.4 | |
| Oggi h: 05:55 | Poco Nuvoloso | 26 | 24 | 88 | 1015 | 10 | NE 7.4 | |
| Oggi h: 05:05 | Nuvoloso | 26 | 24 | 88 | 1015 | 10 | NE 7.4 | |
| Oggi h: 04:55 | Molto Nuvoloso | 26 | 24 | 88 | 1015 | 10 | N 5.5 | |
| Oggi h: 04:50 | Molto Nuvoloso | 26 | 24 | 88 | 1015 | 10 | NE 9.3 | |
| Oggi h: 03:55 | Nuvoloso | 26 | 24 | 88 | 1015 | 10 | N 5.5 | |
| Oggi h: 02:55 | Sereno | 27 | 24 | 83 | 1015 | 10 | N 5.5 | |
| Ieri h: 18:55 | Sereno | 30 | 24 | 70 | 1015 | 10 | S/SE 13 | |
| Ieri h: 17:55 | Poco Nuvoloso | 30 | 24 | 70 | 1015 | 10 | SE 16.7 | |
| Ieri h: 16:55 | Nuvoloso | 31 | 24 | 66 | 1015 | 10 | S/SE 11.1 | |
| Ieri h: 15:56 | Poco Nuvoloso | 31 | 24 | 66 | 1015 | 10 | E/SE 13 | |
| Ieri h: 15:55 | Pioggia | 31 | 24 | 66 | 1015 | 10 | E 11.1 | |
| Ieri h: 15:42 | Pioggia | 31 | 25 | 70 | 1016 | 10 | E/NE 13 | |
| Ieri h: 15:10 | Molto Nuvoloso | 28 | 24 | 78 | 1016 | 10 | N 0 | |
| Ieri h: 15:08 | Temporale | 27 | 24 | 83 | 1016 | 10 | E 7.4 | |
| Ieri h: 15:03 | Temporale | 27 | 24 | 83 | 1016 | 10 | NE 14.8 | |
| Ieri h: 14:57 | Temporale | 28 | 24 | 78 | 1016 | 10 | NE 29.6 | |
| Ieri h: 14:55 | Molto Nuvoloso | 29 | 24 | 74 | 1016 | 10 | NE 25.9 | |
| Ieri h: 14:50 | Molto Nuvoloso | 30 | 26 | 79 | 1016 | 10 | E/NE 20.3 | |
| Ieri h: 14:47 | Pioggia | 29 | 25 | 79 | 1016 | 10 | E 11.1 | |
| Ieri h: 14:37 | Pioggia | 29 | 25 | 79 | 1016 | 10 | E/NE 11.1 | |
| Ieri h: 14:32 | Pioggia | 31 | 25 | 70 | 1016 | 10 | S/SE 20.3 | |
| Ieri h: 14:27 | Pioggia | 32 | 25 | 66 | 1016 | 10 | SE 16.7 | |
| Ieri h: 14:20 | Molto Nuvoloso | 31 | 24 | 66 | 1016 | 10 | SE 13 | |
| Ieri h: 13:55 | Poco Nuvoloso | 30 | 24 | 70 | 1016 | 10 | E 11.1 | |
| Ieri h: 13:18 | Nuvoloso | 28 | 24 | 78 | 1016 | 10 | E/NE 14.8 | |
| Ieri h: 12:55 | Pioggia | 28 | 24 | 78 | 1017 | 10 | E 24 | |
| Ieri h: 12:53 | Pioggia | 29 | 24 | 74 | 1017 | 10 | E 22.2 | |
| Ieri h: 12:49 | Nuvoloso | 29 | 24 | 74 | 1017 | 10 | E 14.8 | |



